Casper, WY (82601)

1:52 AM MST on February 26, 2017 (GMT -0700)
Grant Avenue | | Change Station

Elev 5164 ft 42.84 °N, 106.32 °W | Updated 2 minutes ago

Clear
Clear
18.3 °F
Feels Like 14 °F
N
3.1
Wind Variable Wind from SSW
Gusts 8.7 mph

Today
High -- | Low -- °F
--% Chance of Precip.
Yesterday
High -- | Low -- °F
Precip. -- in
Pressure 29.91 in
Visibility 10.0 miles
Clouds Clear
Windchill 14 °F
Dew Point 4 °F
Humidity 53%
Rainfall 0.00 in
Snow Depth Not available.
6:45 AM 5:51 PM
Waning Crescent, 0% visible
METAR KCPR 260753Z AUTO 21016G25KT 10SM CLR M12/M18 A2974 RMK AO2 SLP129 T11171178
Pressure 29.91 in
Visibility 10.0 miles
Clouds Clear
Windchill 14 °F
Dew Point 4 °F
Humidity 53%
Rainfall 0.00 in
Snow Depth Not available.
6:45 AM 5:51 PM
Waning Crescent, 0% visible
METAR KCPR 260753Z AUTO 21016G25KT 10SM CLR M12/M18 A2974 RMK AO2 SLP129 T11171178

Get Your Daily Forecast Email!

Thanks for signing up!

Be on the lookout for a verification email in your inbox.

You'll start receiving the daily forecast at 8 AM.

×

10-Day Weather Forecast

Almanac

Astronomy

Feb. 26, 2017 Rise Set
Actual Time
Civil Twilight
Nautical Twilight
Astronomical Twilight
Moon
Length of Visible Light
Length of Day
Tomorrow will be .
, % of the Moon is Illuminated

Today's Extremes

State Highs State Lows

Community

WunderPhotos

Upload Photos

1,962,540 photos uploaded!

WunderBlog® & News

Nearby

Air Quality

  Air Quality AQ Index Pollutant
Not available.

Snow Depth

Station Depth Elevation

Earthquake Activity

City Distance Mag. Time & Date
Minimum magnitude displayed is 2.5.

Coastal Water Temperatures

Place Temperature

Stations

Nearby Weather Stations

Station Location Temp. Windchill Dew Point Humidity Wind Precip. Elev Updated Type
                   

Watches & Warnings

There are currently no watches in effect.